Union Grove, Louisiana
Current Conditions -  °F | °C
As of 9:35 AM on Saturday 20 Dec 2014 (Local Time) from KIER Reporting Station
Overcast Overcast  
Wind Chill:   Ceiling: 700
Heat Index:   Visibility: 10mi
Dew Point:   Wind: 6mph
Humidity: 93%   Direction: 60°ENE
Pressure: 30.26"   Gusts: NA
Location:  31.6668°N, 92.8023°W
Report Text: KIER 201535Z AUTO 06005KT 10SM OVC007 08/07 A3026 RMK AO2 T00810070
Loading
Personal Weather Stations






























Interactive Weather Map New forecast layout! Learn more

10-Day Weather Forecast

Advertisements
Track Severe Weather on mobile